Preview of NWS' New Version of Forecast
This preview is not operational and should not be used for support decisions.

Terminal Aerodrome Forecast (TAF)

Issued by National Weather Service (NWS)

                            
000
FTUS42 KCAE 211003 AAB
TAFOGB
TAF AMD
KOGB 211003Z 2110/2206 00000KT P6SM SKC
     FM211100 00000KT 4SM BR SKC
      TEMPO 2111/2112 2SM BR
     FM211400 14004KT P6SM SCT250=